»·PEaware :: N7375Q KGTF-W43

N7375Q :: KGTF-W43

FLIGHT INFORMATION

Flight Status: Arrived
Operator: Privately registered:
United States
More flights under this callsign
Pilot: Ion I. (24133)
Aircraft: SOCATA TBM-900
(TBM9)
More flights by this aircraft type
Origin: KGTF Great Falls Intl
United States
Destination: W43 Hulett Municipal
United States
More flights between these airports :: More routes between these airports
Route: GTF T317 AUBBY CHARK IMUNE
File this flight plan on PilotEdge
Remarks:
Altitude:
(Current/Filed)
31,000ft
Speed:
(Current/Filed)
310kts
Departed: 15-Aug-20 02:20 PM
Arrived: 15-Aug-20 03:39 PM
Distance/Time
Traveled:
329nm/1:18
Distance/Time
To Go:
Arrived

Flight Plot

Page will automatically refresh every two minutes.

Flight plan parsing failed; only flown route is shown


Map Options




Map Legend


Flown Route
Filed Route
Departure Airport
Arrival Airport
Navaid (VOR, NDB)
Fix

Horizontal Profiles

Position Reports

Time Latitude Longitude Heading Altitude Ground
Speed
15-Aug-20 14:10 47.486877 -111.354194 314 3654ft 0kts
15-Aug-20 14:11 47.486877 -111.354194 314 3654ft 0kts
15-Aug-20 14:12 47.486877 -111.354194 314 3654ft 0kts
15-Aug-20 14:13 47.486877 -111.354194 314 3654ft 0kts
15-Aug-20 14:14 47.486877 -111.354194 314 3654ft 0kts
15-Aug-20 14:15 47.486902 -111.354232 314 3654ft 1kts
15-Aug-20 14:16 47.488590 -111.352659 13 3642ft 6kts
15-Aug-20 14:17 47.489074 -111.353124 315 3645ft 4kts
15-Aug-20 14:18 47.489543 -111.354024 224 3647ft 0kts
15-Aug-20 14:19 47.475093 -111.373980 230 4487ft 105kts
15-Aug-20 14:20 47.451143 -111.401940 171 6384ft 114kts
15-Aug-20 14:21 47.428000 -111.360285 123 8106ft 157kts
15-Aug-20 14:22 47.402017 -111.299462 122 9921ft 190kts
15-Aug-20 14:23 47.372571 -111.230486 122 11694ft 206kts
15-Aug-20 14:24 47.341049 -111.156811 123 13500ft 216kts
15-Aug-20 14:25 47.309677 -111.080227 116 15307ft 225kts
15-Aug-20 14:26 47.282054 -110.995463 116 17124ft 234kts
15-Aug-20 14:27 47.253515 -110.908377 116 18934ft 240kts
15-Aug-20 14:28 47.224046 -110.818738 116 20759ft 245kts
15-Aug-20 14:29 47.194289 -110.728550 116 22550ft 247kts
15-Aug-20 14:31 47.164106 -110.637392 116 24360ft 248kts
15-Aug-20 14:32 47.133021 -110.543840 116 26217ft 260kts
15-Aug-20 14:33 47.100913 -110.447503 117 28039ft 266kts
15-Aug-20 14:34 47.068062 -110.349374 118 29867ft 271kts
15-Aug-20 14:35 47.034310 -110.248986 117 31183ft 287kts
15-Aug-20 14:36 46.996547 -110.136974 117 31171ft 321kts
15-Aug-20 14:37 46.955907 -110.016994 117 31180ft 335kts
15-Aug-20 14:38 46.913789 -109.893293 116 31196ft 342kts
15-Aug-20 14:39 46.871532 -109.769752 116 31193ft 346kts
15-Aug-20 14:40 46.829026 -109.646110 116 31186ft 329kts
15-Aug-20 14:41 46.789027 -109.530265 116 31195ft 311kts
15-Aug-20 14:42 46.750492 -109.419176 116 31204ft 303kts
15-Aug-20 14:43 46.712585 -109.310283 117 31205ft 299kts
15-Aug-20 14:44 46.674992 -109.202779 117 31207ft 297kts
15-Aug-20 14:44 46.643614 -109.113390 117 31195ft 297kts
15-Aug-20 14:46 46.599733 -108.988845 116 31170ft 297kts
15-Aug-20 14:47 46.561832 -108.881749 116 31165ft 297kts
15-Aug-20 14:48 46.523914 -108.775063 116 31163ft 297kts
15-Aug-20 14:49 46.485923 -108.668563 116 31166ft 298kts
15-Aug-20 15:26 44.425264 -104.912754 124 7985ft 276kts
15-Aug-20 15:27 44.389775 -104.822778 111 7752ft 253kts
15-Aug-20 15:28 44.369582 -104.749080 111 7557ft 163kts
15-Aug-20 15:29 44.401378 -104.708748 17 7191ft 192kts
15-Aug-20 15:30 44.453049 -104.681176 18 6588ft 196kts
15-Aug-20 15:31 44.503381 -104.654043 18 6578ft 172kts
15-Aug-20 15:32 44.538272 -104.634857 24 6571ft 117kts
15-Aug-20 15:33 44.563665 -104.606536 46 6317ft 115kts
15-Aug-20 15:34 44.584607 -104.573185 45 6091ft 114kts
15-Aug-20 15:35 44.606991 -104.544370 36 5891ft 107kts
15-Aug-20 15:36 44.632393 -104.535385 329 5199ft 97kts
15-Aug-20 15:37 44.652972 -104.557076 321 4424ft 92kts
15-Aug-20 15:38 44.666071 -104.571401 322 4188ft 21kts
15-Aug-20 15:39 44.668139 -104.571538 349 4180ft 3kts
15-Aug-20 15:40 44.668335 -104.571930 228 4180ft 0kts
15-Aug-20 15:41 44.668335 -104.571930 228 4180ft 0kts
15-Aug-20 15:42 44.668335 -104.571930 228 4180ft 0kts
15-Aug-20 15:43 44.668335 -104.571930 228 4180ft 0kts
15-Aug-20 15:44 44.668335 -104.571930 228 4180ft 0kts
15-Aug-20 15:45 44.668335 -104.571930 228 4180ft 0kts
15-Aug-20 15:46 44.668335 -104.571930 228 4180ft 0kts
15-Aug-20 15:47 44.668335 -104.571930 228 4180ft 0kts
15-Aug-20 15:48 44.668335 -104.571930 228 4180ft 0kts
15-Aug-20 15:49 44.668335 -104.571930 228 4180ft 0kts
15-Aug-20 15:50 44.668335 -104.571930 228 4180ft 0kts
15-Aug-20 15:51 44.668335 -104.571930 228 4180ft 0kts
15-Aug-20 15:52 44.668335 -104.571930 228 4180ft 0kts
15-Aug-20 15:53 44.668335 -104.571930 228 4180ft 0kts

Navigation Log

Ident Type
Flight plan parsing failed, navigation log unavailable